createdAt,value
2022-10-01T00:00:52.139Z,14.80
2022-10-01T00:03:19.398Z,14.80
2022-10-01T00:05:46.531Z,14.70
2022-10-01T00:08:16.622Z,14.80
2022-10-01T00:10:44.102Z,14.70
2022-10-01T00:13:11.208Z,14.70
2022-10-01T00:15:41.118Z,14.80
2022-10-01T00:18:08.930Z,14.80
2022-10-01T00:20:35.733Z,14.80
2022-10-01T00:23:02.418Z,14.80
2022-10-01T00:25:29.182Z,14.80
2022-10-01T00:27:56.512Z,14.70
2022-10-01T00:30:23.301Z,14.80
2022-10-01T00:32:52.877Z,14.70
2022-10-01T00:35:19.539Z,14.60
2022-10-01T00:37:47.888Z,14.70
2022-10-01T00:40:14.757Z,14.70
2022-10-01T00:42:41.617Z,14.70
2022-10-01T00:45:10.870Z,14.80
2022-10-01T00:47:40.989Z,14.60
2022-10-01T00:50:10.967Z,14.60
2022-10-01T00:52:39.882Z,14.60
2022-10-01T00:55:18.308Z,14.60
2022-10-01T00:57:45.553Z,14.50
2022-10-01T01:00:13.738Z,14.50
2022-10-01T01:02:41.160Z,14.60
2022-10-01T01:05:09.113Z,14.60
2022-10-01T01:07:36.332Z,14.60
2022-10-01T01:10:03.936Z,14.60
2022-10-01T01:12:36.808Z,14.60
2022-10-01T01:15:12.761Z,14.60
2022-10-01T01:17:59.797Z,14.60
2022-10-01T01:20:43.052Z,14.80
2022-10-01T01:23:18.837Z,14.70
2022-10-01T01:26:01.650Z,14.60
2022-10-01T01:28:33.728Z,14.60
2022-10-01T01:31:03.490Z,14.50
2022-10-01T01:33:31.573Z,14.50
2022-10-01T01:36:01.344Z,14.50
2022-10-01T01:38:32.078Z,14.50
2022-10-01T01:41:00.533Z,14.50
2022-10-01T01:43:30.705Z,14.50
2022-10-01T01:45:59.608Z,14.40
2022-10-01T01:48:27.019Z,14.40
2022-10-01T01:50:57.599Z,14.40
2022-10-01T01:53:24.603Z,14.40
2022-10-01T01:55:52.164Z,14.30
2022-10-01T01:58:19.977Z,14.20
2022-10-01T02:00:52.316Z,14.20
2022-10-01T02:03:22.052Z,14.20
2022-10-01T02:05:54.432Z,14.10
2022-10-01T02:08:30.644Z,13.90
2022-10-01T02:11:03.746Z,13.90
2022-10-01T02:13:39.422Z,14.00
2022-10-01T02:16:18.963Z,14.00
2022-10-01T02:18:57.812Z,13.90
2022-10-01T02:21:27.264Z,13.90
2022-10-01T02:23:53.985Z,13.80
2022-10-01T02:26:21.549Z,13.70
2022-10-01T02:28:50.749Z,13.70
2022-10-01T02:31:18.062Z,13.80
2022-10-01T02:33:46.054Z,13.80
2022-10-01T02:36:13.553Z,13.80
2022-10-01T02:38:41.867Z,13.80
2022-10-01T02:41:11.622Z,13.80
2022-10-01T02:43:48.038Z,13.60
2022-10-01T02:46:20.255Z,13.50
2022-10-01T02:48:47.567Z,13.40
2022-10-01T02:51:33.156Z,13.20
2022-10-01T02:54:07.986Z,13.20
2022-10-01T02:56:56.219Z,13.20
2022-10-01T02:59:23.109Z,13.00
2022-10-01T03:01:49.926Z,12.90
2022-10-01T03:04:18.211Z,13.00
2022-10-01T03:06:46.062Z,12.90
2022-10-01T03:09:13.243Z,12.90
2022-10-01T03:11:39.977Z,12.90
2022-10-01T03:14:07.376Z,12.80
2022-10-01T03:16:34.111Z,12.70
2022-10-01T03:19:00.843Z,12.60
2022-10-01T03:21:27.580Z,12.60
2022-10-01T03:23:54.316Z,12.60
2022-10-01T03:26:21.100Z,12.60
2022-10-01T03:28:47.792Z,12.60
2022-10-01T03:31:14.610Z,12.70
2022-10-01T03:33:41.490Z,12.60
2022-10-01T03:36:08.304Z,12.70
2022-10-01T03:38:34.969Z,12.70
2022-10-01T03:41:01.654Z,12.70
2022-10-01T03:43:29.036Z,12.70
2022-10-01T03:45:56.717Z,12.60
2022-10-01T03:48:23.793Z,12.60
2022-10-01T03:50:54.802Z,12.50
2022-10-01T03:53:21.848Z,12.50
2022-10-01T03:55:48.700Z,12.40
2022-10-01T03:58:15.533Z,12.30
2022-10-01T04:00:44.215Z,12.20
2022-10-01T04:03:11.349Z,12.10
2022-10-01T04:05:38.134Z,12.20
2022-10-01T04:08:04.910Z,12.20
2022-10-01T04:10:31.615Z,12.20
2022-10-01T04:12:58.358Z,12.20
2022-10-01T04:15:25.540Z,12.10
2022-10-01T04:17:52.224Z,12.10
2022-10-01T04:20:18.940Z,12.10
2022-10-01T04:22:46.970Z,12.10
2022-10-01T04:25:13.875Z,12.10
2022-10-01T04:27:41.276Z,12.00
2022-10-01T04:30:08.824Z,11.90
2022-10-01T04:32:35.597Z,12.00
2022-10-01T04:35:04.441Z,12.00
2022-10-01T04:37:31.221Z,11.90
2022-10-01T04:39:57.897Z,11.80
2022-10-01T04:42:24.640Z,12.00
2022-10-01T04:44:51.383Z,11.90
2022-10-01T04:47:18.654Z,11.80
2022-10-01T04:49:45.335Z,11.80
2022-10-01T04:52:12.086Z,11.70
2022-10-01T04:54:38.767Z,11.70
2022-10-01T04:57:05.686Z,11.90
2022-10-01T04:59:32.772Z,11.70
2022-10-01T05:01:59.685Z,11.60
2022-10-01T05:04:27.439Z,11.60
2022-10-01T05:06:54.174Z,11.60
2022-10-01T05:09:20.952Z,11.90
2022-10-01T05:11:51.966Z,11.80
2022-10-01T05:14:21.206Z,11.70
2022-10-01T05:16:47.991Z,11.70
2022-10-01T05:19:14.713Z,11.70
2022-10-01T05:21:41.450Z,11.60
2022-10-01T05:24:08.244Z,11.60
2022-10-01T05:26:37.074Z,11.60
2022-10-01T05:29:03.900Z,11.60
2022-10-01T05:31:30.713Z,11.60
2022-10-01T05:33:57.504Z,11.70
2022-10-01T05:36:24.266Z,11.70
2022-10-01T05:38:52.385Z,11.80
2022-10-01T05:41:20.424Z,11.90
2022-10-01T05:43:51.286Z,11.90
2022-10-01T05:46:18.228Z,11.90
2022-10-01T05:48:45.196Z,11.90
2022-10-01T05:51:13.805Z,12.00
2022-10-01T05:53:40.583Z,12.10
2022-10-01T05:56:07.742Z,12.20
2022-10-01T05:58:34.459Z,12.30
2022-10-01T06:01:01.270Z,12.10
2022-10-01T06:03:28.973Z,12.00
2022-10-01T06:05:56.121Z,12.10
2022-10-01T06:08:22.996Z,12.10
2022-10-01T06:10:49.931Z,12.10
2022-10-01T06:13:17.918Z,12.10
2022-10-01T06:15:45.849Z,12.10
2022-10-01T06:18:13.646Z,12.20
2022-10-01T06:20:41.081Z,12.30
2022-10-01T06:23:12.145Z,12.40
2022-10-01T06:25:39.707Z,12.50
2022-10-01T06:28:07.445Z,12.40
2022-10-01T06:30:34.946Z,12.50
2022-10-01T06:33:05.120Z,12.60
2022-10-01T06:35:32.491Z,12.70
2022-10-01T06:38:01.609Z,12.80
2022-10-01T06:40:31.632Z,13.00
2022-10-01T06:42:58.776Z,13.20
2022-10-01T06:45:29.814Z,13.50
2022-10-01T06:47:57.529Z,13.80
2022-10-01T06:50:24.605Z,14.00
2022-10-01T06:52:52.456Z,14.20
2022-10-01T06:55:24.431Z,14.30
2022-10-01T06:57:55.600Z,14.50
2022-10-01T07:00:22.722Z,14.70
2022-10-01T07:02:51.740Z,14.90
2022-10-01T07:05:18.584Z,15.00
2022-10-01T07:07:45.256Z,15.20
2022-10-01T07:10:12.254Z,15.40
2022-10-01T07:12:39.665Z,15.80
2022-10-01T07:15:07.520Z,15.90
2022-10-01T07:17:35.143Z,16.10
2022-10-01T07:20:02.024Z,16.30
2022-10-01T07:22:28.743Z,16.50
2022-10-01T07:24:55.474Z,16.60
2022-10-01T07:27:22.182Z,16.70
2022-10-01T07:29:48.925Z,16.70
2022-10-01T07:32:15.791Z,16.60
2022-10-01T07:34:42.615Z,16.80
2022-10-01T07:37:09.816Z,16.80
2022-10-01T07:39:36.949Z,16.90
2022-10-01T07:42:04.374Z,17.10
2022-10-01T07:44:31.153Z,17.00
2022-10-01T07:46:57.869Z,16.70
2022-10-01T07:49:27.712Z,16.80
2022-10-01T07:51:54.791Z,16.90
2022-10-01T07:54:22.204Z,17.20
2022-10-01T07:56:50.392Z,17.50
2022-10-01T07:59:17.101Z,17.40
2022-10-01T08:01:43.921Z,17.70
2022-10-01T08:04:39.868Z,17.70
2022-10-01T08:07:08.243Z,17.80
2022-10-01T08:09:35.432Z,17.80
2022-10-01T08:12:03.021Z,18.00
2022-10-01T08:14:30.508Z,18.20
2022-10-01T08:16:57.549Z,18.50
2022-10-01T08:19:24.743Z,18.70
2022-10-01T08:21:51.537Z,18.90
2022-10-01T08:24:18.298Z,18.50
2022-10-01T08:26:45.135Z,18.10
2022-10-01T08:29:16.305Z,17.80
2022-10-01T08:31:43.773Z,17.80
2022-10-01T08:34:10.504Z,18.00
2022-10-01T08:36:37.835Z,18.30
2022-10-01T08:39:04.551Z,18.50
2022-10-01T08:41:35.122Z,18.80
2022-10-01T08:44:03.901Z,18.90
2022-10-01T08:46:35.050Z,18.60
2022-10-01T08:49:06.380Z,18.60
2022-10-01T08:51:43.524Z,18.70
2022-10-01T08:54:18.855Z,18.60
2022-10-01T08:56:47.614Z,18.60
2022-10-01T08:59:35.937Z,18.90
2022-10-01T09:02:02.838Z,19.00
2022-10-01T09:04:29.646Z,18.80
2022-10-01T09:07:03.760Z,19.00
2022-10-01T09:09:42.178Z,18.90
2022-10-01T09:12:11.894Z,19.10
2022-10-01T09:14:51.131Z,19.30
2022-10-01T09:17:42.184Z,19.50
2022-10-01T09:20:20.182Z,19.20
2022-10-01T09:23:07.194Z,18.90
2022-10-01T09:25:34.999Z,19.20
2022-10-01T09:28:07.166Z,19.30
2022-10-01T09:30:34.223Z,19.00
2022-10-01T09:33:10.992Z,19.30
2022-10-01T09:35:44.131Z,19.70
2022-10-01T09:38:18.052Z,19.40
2022-10-01T09:40:44.923Z,19.50
2022-10-01T09:43:11.883Z,19.50
2022-10-01T09:45:38.943Z,19.80
2022-10-01T09:48:25.980Z,19.60
2022-10-01T09:50:56.374Z,19.60
2022-10-01T09:53:26.124Z,19.80
2022-10-01T09:55:55.937Z,19.30
2022-10-01T09:58:23.877Z,19.30
2022-10-01T10:00:52.344Z,19.70
2022-10-01T10:03:28.559Z,19.60
2022-10-01T10:05:55.932Z,19.30
2022-10-01T10:08:28.692Z,19.40
2022-10-01T10:11:00.649Z,19.40
2022-10-01T10:13:35.240Z,19.60
2022-10-01T10:16:26.384Z,19.50
2022-10-01T10:18:56.001Z,19.60
2022-10-01T10:21:34.889Z,19.60
2022-10-01T10:24:02.999Z,19.80
2022-10-01T10:26:32.487Z,20.20
2022-10-01T10:29:02.160Z,20.60
2022-10-01T10:31:39.700Z,20.50
2022-10-01T10:34:12.384Z,20.50
2022-10-01T10:36:39.327Z,20.90
2022-10-01T10:39:06.985Z,21.10
2022-10-01T10:41:34.473Z,20.90
2022-10-01T10:44:06.180Z,20.80
2022-10-01T10:46:34.237Z,21.00
2022-10-01T10:49:06.924Z,21.00
2022-10-01T10:51:43.810Z,20.90
2022-10-01T10:54:17.748Z,20.80
2022-10-01T10:56:51.153Z,20.30
2022-10-01T10:59:18.537Z,20.60
2022-10-01T11:01:47.511Z,20.60
2022-10-01T11:04:40.667Z,20.40
2022-10-01T11:07:08.118Z,20.50
2022-10-01T11:09:48.024Z,20.60
2022-10-01T11:12:28.977Z,20.90
2022-10-01T11:15:04.013Z,21.40
2022-10-01T11:17:36.903Z,21.20
2022-10-01T11:20:15.459Z,21.00
2022-10-01T11:23:10.415Z,21.30
2022-10-01T11:25:41.898Z,21.60
2022-10-01T11:28:20.993Z,22.20
2022-10-01T11:31:06.819Z,21.70
2022-10-01T11:33:45.084Z,21.80
2022-10-01T11:36:26.991Z,21.70
2022-10-01T11:39:05.639Z,21.40
2022-10-01T11:41:40.483Z,21.10
2022-10-01T11:44:13.760Z,21.20
2022-10-01T11:46:43.746Z,21.30
2022-10-01T11:49:16.350Z,21.10
2022-10-01T11:51:46.051Z,21.50
2022-10-01T11:54:14.516Z,21.80
2022-10-01T11:57:01.930Z,22.00
2022-10-01T11:59:37.871Z,22.20
2022-10-01T12:02:28.279Z,22.00
2022-10-01T12:05:17.190Z,21.70
2022-10-01T12:07:50.188Z,21.80
2022-10-01T12:10:17.323Z,21.90
2022-10-01T12:12:49.800Z,21.80
2022-10-01T12:15:23.259Z,21.70
2022-10-01T12:17:53.133Z,21.80
2022-10-01T12:20:34.845Z,22.00
2022-10-01T12:23:03.798Z,21.90
2022-10-01T12:25:54.500Z,21.50
2022-10-01T12:28:41.576Z,21.50
2022-10-01T12:31:12.720Z,21.30
2022-10-01T12:33:42.532Z,21.40
2022-10-01T12:36:36.764Z,21.50
2022-10-01T12:39:18.400Z,21.10
2022-10-01T12:41:52.861Z,21.10
2022-10-01T12:44:38.526Z,21.00
2022-10-01T12:47:24.300Z,20.90
2022-10-01T12:49:53.917Z,21.00
2022-10-01T12:52:23.711Z,21.00
2022-10-01T12:54:59.525Z,21.00
2022-10-01T12:57:35.023Z,20.90
2022-10-01T13:00:19.416Z,20.80
2022-10-01T13:02:46.184Z,20.80
2022-10-01T13:05:22.241Z,20.60
2022-10-01T13:07:57.900Z,20.60
2022-10-01T13:10:24.674Z,20.70
2022-10-01T13:12:58.470Z,21.10
2022-10-01T13:15:51.577Z,21.20
2022-10-01T13:18:37.235Z,21.10
2022-10-01T13:21:14.840Z,20.90
2022-10-01T13:23:51.224Z,21.10
2022-10-01T13:26:20.747Z,21.10
2022-10-01T13:28:52.690Z,21.10
2022-10-01T13:31:19.667Z,21.00
2022-10-01T13:33:56.411Z,21.20
2022-10-01T13:36:30.326Z,21.40
2022-10-01T13:38:57.103Z,21.30
2022-10-01T13:41:23.906Z,21.20
2022-10-01T13:44:14.045Z,21.10
2022-10-01T13:46:52.172Z,21.10
2022-10-01T13:49:30.112Z,21.20
2022-10-01T13:51:57.592Z,21.00
2022-10-01T13:54:24.311Z,21.10
2022-10-01T13:56:51.115Z,21.20
2022-10-01T13:59:26.464Z,21.20
2022-10-01T14:01:53.439Z,21.10
2022-10-01T14:04:20.191Z,21.20
2022-10-01T14:06:54.858Z,21.10
2022-10-01T14:09:33.397Z,21.10
2022-10-01T14:12:24.589Z,21.20
2022-10-01T14:15:13.656Z,21.30
2022-10-01T14:17:41.497Z,21.40
2022-10-01T14:20:08.580Z,21.30
2022-10-01T14:22:47.666Z,21.20
2022-10-01T14:25:23.634Z,21.10
2022-10-01T14:28:06.744Z,20.90
2022-10-01T14:30:57.018Z,21.00
2022-10-01T14:33:53.128Z,20.90
2022-10-01T14:36:35.059Z,20.90
2022-10-01T14:39:04.978Z,20.90
2022-10-01T14:41:33.487Z,20.80
2022-10-01T14:44:00.786Z,20.80
2022-10-01T14:46:27.580Z,20.80
2022-10-01T14:48:58.930Z,20.90
2022-10-01T14:51:27.784Z,20.90
2022-10-01T14:53:56.698Z,21.00
2022-10-01T14:56:23.792Z,20.90
2022-10-01T14:58:55.644Z,20.80
2022-10-01T15:01:23.254Z,20.80
2022-10-01T15:03:50.541Z,20.80
2022-10-01T15:06:19.238Z,20.80
2022-10-01T15:08:47.933Z,20.80
2022-10-01T15:11:17.545Z,20.90
2022-10-01T15:13:45.791Z,20.90
2022-10-01T15:16:14.229Z,21.00
2022-10-01T15:18:42.932Z,20.90
2022-10-01T15:21:15.390Z,20.80
2022-10-01T15:23:42.205Z,20.80
2022-10-01T15:26:11.306Z,20.80
2022-10-01T15:28:38.106Z,20.80
2022-10-01T15:31:05.855Z,20.80
2022-10-01T15:33:37.101Z,20.80
2022-10-01T15:36:08.712Z,20.70
2022-10-01T15:38:36.170Z,20.70
2022-10-01T15:41:26.690Z,20.70
2022-10-01T15:43:51.495Z,20.70
2022-10-01T15:46:25.320Z,20.50
2022-10-01T15:49:11.417Z,20.50
2022-10-01T15:51:43.468Z,20.50
2022-10-01T15:54:15.405Z,20.40
2022-10-01T15:56:46.825Z,20.30
2022-10-01T15:59:17.506Z,20.30
2022-10-01T16:01:44.430Z,20.20
2022-10-01T16:04:12.907Z,20.20
2022-10-01T16:06:47.658Z,20.10
2022-10-01T16:09:18.635Z,20.10
2022-10-01T16:12:00.407Z,20.00
2022-10-01T16:14:31.750Z,19.90
2022-10-01T16:17:23.946Z,19.80
2022-10-01T16:19:52.232Z,19.70
2022-10-01T16:22:27.834Z,19.50
2022-10-01T16:24:55.044Z,19.50
2022-10-01T16:27:23.868Z,19.30
2022-10-01T16:30:09.857Z,19.30
2022-10-01T16:32:36.682Z,19.20
2022-10-01T16:35:18.555Z,19.10
2022-10-01T16:37:45.668Z,19.20
2022-10-01T16:40:16.059Z,19.10
2022-10-01T16:42:44.103Z,19.00
2022-10-01T16:45:15.897Z,19.00
2022-10-01T16:47:42.724Z,18.90
2022-10-01T16:50:10.509Z,19.00
2022-10-01T16:52:37.869Z,18.80
2022-10-01T16:55:04.951Z,18.80
2022-10-01T16:57:32.480Z,18.60
2022-10-01T16:59:59.248Z,18.50
2022-10-01T17:02:26.125Z,18.40
2022-10-01T17:04:52.894Z,18.30
2022-10-01T17:07:19.623Z,18.40
2022-10-01T17:09:46.423Z,18.30
2022-10-01T17:12:13.466Z,18.20
2022-10-01T17:14:40.732Z,18.00
2022-10-01T17:17:07.539Z,18.10
2022-10-01T17:19:34.260Z,18.10
2022-10-01T17:22:00.971Z,18.00
2022-10-01T17:24:27.704Z,18.00
2022-10-01T17:26:54.543Z,18.10
2022-10-01T17:29:21.291Z,18.00
2022-10-01T17:31:53.377Z,17.90
2022-10-01T17:34:21.187Z,17.80
2022-10-01T17:36:48.568Z,17.60
2022-10-01T17:39:15.424Z,17.60
2022-10-01T17:41:42.192Z,17.30
2022-10-01T17:44:08.928Z,17.10
2022-10-01T17:46:35.927Z,17.10
2022-10-01T17:49:02.898Z,17.00
2022-10-01T17:51:29.870Z,16.90
2022-10-01T17:53:56.773Z,16.80
2022-10-01T17:56:23.528Z,16.50
2022-10-01T17:58:52.521Z,16.30
2022-10-01T18:01:21.153Z,16.20
2022-10-01T18:03:51.767Z,16.20
2022-10-01T18:06:18.543Z,16.10
2022-10-01T18:08:55.024Z,16.10
2022-10-01T18:11:23.165Z,16.00
2022-10-01T18:13:50.650Z,15.90
2022-10-01T18:16:19.384Z,16.00
2022-10-01T18:21:33.601Z,15.70
2022-10-01T18:24:04.147Z,15.60
2022-10-01T18:26:32.347Z,15.50
2022-10-01T18:28:59.332Z,15.40
2022-10-01T18:31:27.405Z,15.50
2022-10-01T18:33:55.374Z,15.50
2022-10-01T18:36:24.939Z,15.40
2022-10-01T18:38:54.385Z,15.40
2022-10-01T18:41:27.703Z,15.30
2022-10-01T18:43:54.528Z,15.20
2022-10-01T18:46:21.290Z,15.20
2022-10-01T18:48:51.105Z,15.00
2022-10-01T18:51:23.812Z,15.10
2022-10-01T18:54:00.582Z,15.10
2022-10-01T18:56:35.385Z,15.20
2022-10-01T18:59:05.105Z,15.10
2022-10-01T19:01:40.610Z,15.10
2022-10-01T19:04:13.507Z,15.10
2022-10-01T19:06:40.213Z,15.10
2022-10-01T19:09:17.552Z,15.00
2022-10-01T19:12:01.996Z,14.90
2022-10-01T19:14:47.519Z,14.80
2022-10-01T19:17:37.406Z,14.90
2022-10-01T19:20:12.922Z,14.80
2022-10-01T19:22:58.842Z,14.80
2022-10-01T19:25:25.570Z,14.70
2022-10-01T19:28:18.523Z,14.70
2022-10-01T19:31:03.994Z,14.60
2022-10-01T19:33:32.899Z,14.50
2022-10-01T19:36:00.041Z,14.50
2022-10-01T19:38:34.864Z,14.70
2022-10-01T19:41:06.485Z,14.60
2022-10-01T19:43:39.201Z,14.60
2022-10-01T19:46:09.630Z,14.50
2022-10-01T19:49:02.852Z,14.60
2022-10-01T19:51:33.783Z,14.50
2022-10-01T19:54:01.483Z,14.40
2022-10-01T19:56:29.714Z,14.40
2022-10-01T19:59:16.785Z,14.50
2022-10-01T20:01:47.178Z,14.40
2022-10-01T20:04:18.389Z,14.40
2022-10-01T20:06:46.842Z,14.40
2022-10-01T20:09:20.581Z,14.40
2022-10-01T20:11:52.915Z,14.30
2022-10-01T20:14:44.268Z,14.30
2022-10-01T20:17:28.134Z,14.20
2022-10-01T20:20:03.381Z,14.10
2022-10-01T20:22:36.528Z,14.30
2022-10-01T20:25:09.597Z,14.30
2022-10-01T20:27:36.371Z,14.10
2022-10-01T20:30:05.956Z,14.10
2022-10-01T20:32:32.764Z,14.10
2022-10-01T20:35:18.022Z,14.10
2022-10-01T20:37:47.488Z,14.60
2022-10-01T20:40:25.049Z,14.50
2022-10-01T20:43:18.294Z,14.40
2022-10-01T20:45:47.364Z,14.40
2022-10-01T20:48:23.350Z,14.30
2022-10-01T20:50:54.460Z,14.10
2022-10-01T20:53:39.873Z,14.20
2022-10-01T20:56:12.253Z,14.30
2022-10-01T20:58:50.730Z,14.10
2022-10-01T21:01:20.549Z,14.20
2022-10-01T21:03:56.784Z,14.30
2022-10-01T21:06:26.717Z,14.20
2022-10-01T21:08:57.183Z,14.00
2022-10-01T21:11:30.585Z,13.90
2022-10-01T21:14:03.339Z,13.80
2022-10-01T21:16:38.513Z,13.70
2022-10-01T21:19:05.370Z,13.50
2022-10-01T21:21:32.639Z,13.50
2022-10-01T21:24:06.011Z,13.40
2022-10-01T21:26:41.447Z,13.40
2022-10-01T21:29:08.261Z,13.40
2022-10-01T21:31:49.691Z,13.40
2022-10-01T21:34:22.277Z,13.50
2022-10-01T21:37:04.327Z,13.40
2022-10-01T21:39:48.201Z,13.30
2022-10-01T21:42:14.979Z,13.30
2022-10-01T21:44:59.808Z,13.40
2022-10-01T21:47:32.324Z,13.30
2022-10-01T21:50:04.926Z,13.30
2022-10-01T21:52:43.756Z,13.20
2022-10-01T21:55:13.596Z,13.00
2022-10-01T21:57:48.207Z,12.90
2022-10-01T22:00:19.612Z,13.10
2022-10-01T22:03:09.437Z,13.10
2022-10-01T22:05:44.944Z,13.00
2022-10-01T22:08:20.259Z,13.00
2022-10-01T22:10:50.257Z,13.00
2022-10-01T22:13:17.234Z,13.00
2022-10-01T22:15:44.722Z,13.10
2022-10-01T22:18:15.151Z,13.10
2022-10-01T22:20:42.681Z,13.00
2022-10-01T22:23:11.817Z,12.90
2022-10-01T22:25:41.713Z,13.10
2022-10-01T22:28:13.021Z,13.10
2022-10-01T22:30:40.987Z,12.90
2022-10-01T22:33:10.046Z,13.00
2022-10-01T22:35:48.822Z,13.00
2022-10-01T22:38:19.625Z,12.90
2022-10-01T22:40:49.673Z,12.70
2022-10-01T22:43:16.467Z,12.70
2022-10-01T22:45:54.048Z,12.70
2022-10-01T22:48:23.921Z,12.80
2022-10-01T22:50:53.539Z,12.80
2022-10-01T22:53:29.097Z,12.80
2022-10-01T22:55:56.884Z,12.70
2022-10-01T22:58:26.351Z,12.80
2022-10-01T23:01:15.157Z,12.70
2022-10-01T23:03:51.070Z,12.70
2022-10-01T23:06:27.070Z,12.60
2022-10-01T23:08:56.994Z,12.70
2022-10-01T23:11:26.285Z,12.80
2022-10-01T23:13:59.095Z,12.70
2022-10-01T23:16:25.828Z,12.50
2022-10-01T23:19:11.285Z,12.50
2022-10-01T23:21:45.727Z,12.50
2022-10-01T23:24:13.767Z,12.50
2022-10-01T23:26:46.902Z,12.70
2022-10-01T23:29:28.609Z,12.50
2022-10-01T23:32:15.221Z,12.40
2022-10-01T23:34:41.940Z,12.60
2022-10-01T23:37:27.528Z,12.50
2022-10-01T23:40:03.001Z,12.40
2022-10-01T23:42:48.624Z,12.30
2022-10-01T23:45:15.423Z,12.30
2022-10-01T23:47:49.502Z,12.30
2022-10-01T23:50:36.454Z,12.20
2022-10-01T23:53:23.427Z,12.20
2022-10-01T23:56:08.744Z,12.30
2022-10-01T23:58:40.556Z,12.20
